メインページ
METAR-TAF:

METAR-TAF

空港 :

昆明, 中華人民共和国

昆明長水国際空港

緯度: 25-01N, 経度: 102-41E, 海抜: 1892m

現時点の気象観測

当レポートは35分前の19:00(UTC)に作成
無風
気温 7°C
湿度 76%
気圧 1021 hPa
視程10km以上
1,500メートル以下は雲なし、積乱雲なし

METAR: ZPPP 251900Z 00000MPS CAVOK 07/03 Q1021 NOSIG

時間: 03:35 (19:35 UTC)

予報

当レポートは6時間21分前の13:14(UTC)に作成
予報は25日の 18時(UTC)から 26日の 18時(UTC)まで有効
南西の風 8kt
視程10km以上
高度2600ftの雲はほとんどない
26日の 03時(UTC)から 26日の 04時(UTC)まで徐々に
南西の風 21kt、最大33ktの突風を伴う
26日の 10時(UTC)から 26日の 11時(UTC)まで徐々に
南西の風 12kt

TAF: ZPPP 251314Z 2518/2618 22004MPS 9999 FEW026 TX20/2608Z TN05/2523Z BECMG 2603/2604 22011G17MPS BECMG 2610/2611 22006MPS

4,000以上の空港の気象観測と天気予報(METAR報とTAF報)

利用可能な観測所は地図上に黄色い丸と赤い丸で示す。

丸の上にカーソルを重ねると観測所名を参照できる。

次にクリックすると気象観測と天気予報を参照できる。

マップの切り替え:黒色「×」印の緑ボタンをクリックして拡大、「-」印の緑ボタンをクリックして縮小、緑色の三角印をクリックして隣りの地図に切り替え


METAR-TAF: